createdAt,value
2022-09-26T00:01:30.634Z,74.10
2022-09-26T00:04:02.833Z,74.40
2022-09-26T00:06:29.681Z,73.69
2022-09-26T00:08:56.740Z,74.23
2022-09-26T00:11:31.756Z,73.72
2022-09-26T00:14:01.367Z,74.24
2022-09-26T00:16:28.451Z,74.27
2022-09-26T00:18:56.875Z,74.21
2022-09-26T00:21:24.654Z,74.18
2022-09-26T00:23:51.594Z,73.77
2022-09-26T00:26:20.725Z,74.23
2022-09-26T00:28:47.485Z,73.60
2022-09-26T00:31:24.537Z,73.51
2022-09-26T00:33:51.223Z,73.83
2022-09-26T00:36:18.338Z,73.94
2022-09-26T00:38:45.496Z,74.02
2022-09-26T00:41:12.489Z,74.10
2022-09-26T00:43:51.454Z,74.31
2022-09-26T00:46:24.129Z,73.82
2022-09-26T00:49:18.668Z,74.00
2022-09-26T00:51:50.986Z,74.49
2022-09-26T00:54:18.751Z,74.62
2022-09-26T00:56:51.160Z,73.82
2022-09-26T00:59:51.986Z,74.11
2022-09-26T01:02:19.197Z,73.87
2022-09-26T01:04:47.627Z,74.14
2022-09-26T01:07:18.511Z,74.17
2022-09-26T01:09:45.230Z,73.78
2022-09-26T01:12:12.364Z,74.54
2022-09-26T01:14:40.782Z,74.49
2022-09-26T01:17:08.511Z,74.26
2022-09-26T01:19:53.737Z,74.53
2022-09-26T01:22:23.316Z,74.28
2022-09-26T01:25:04.940Z,74.13
2022-09-26T01:27:43.577Z,73.79
2022-09-26T01:30:18.075Z,73.84
2022-09-26T01:32:50.910Z,73.48
2022-09-26T01:35:39.149Z,73.73
2022-09-26T01:38:30.405Z,74.11
2022-09-26T01:41:34.116Z,73.44
2022-09-26T01:44:35.309Z,73.42
2022-09-26T01:47:13.732Z,73.62
2022-09-26T01:49:40.337Z,73.24
2022-09-26T01:52:19.567Z,73.10
2022-09-26T01:55:02.110Z,73.25
2022-09-26T01:57:33.354Z,72.87
2022-09-26T02:00:02.698Z,73.26
2022-09-26T02:02:33.351Z,73.15
2022-09-26T02:05:04.925Z,72.52
2022-09-26T02:07:40.265Z,73.24
2022-09-26T02:10:20.957Z,73.13
2022-09-26T02:12:51.167Z,72.89
2022-09-26T02:15:20.051Z,72.77
2022-09-26T02:17:54.896Z,72.80
2022-09-26T02:20:32.368Z,72.63
2022-09-26T02:22:59.553Z,73.08
2022-09-26T02:25:28.341Z,73.23
2022-09-26T02:27:55.193Z,72.61
2022-09-26T02:30:21.921Z,72.62
2022-09-26T02:32:49.199Z,72.83
2022-09-26T02:35:34.868Z,73.54
2022-09-26T02:38:02.724Z,73.36
2022-09-26T02:40:38.434Z,72.86
2022-09-26T02:43:29.762Z,72.79
2022-09-26T02:46:15.145Z,72.95
2022-09-26T02:49:07.556Z,72.98
2022-09-26T02:52:08.945Z,73.21
2022-09-26T02:54:57.900Z,73.20
2022-09-26T02:57:51.778Z,73.08
2022-09-26T03:00:22.338Z,72.94
2022-09-26T03:03:06.045Z,73.11
2022-09-26T03:05:33.387Z,73.12
2022-09-26T03:08:10.076Z,73.38
2022-09-26T03:10:37.671Z,73.16
2022-09-26T03:13:09.083Z,73.02
2022-09-26T03:15:37.779Z,73.07
2022-09-26T03:18:07.396Z,73.22
2022-09-26T03:20:34.061Z,72.75
2022-09-26T03:23:02.475Z,73.21
2022-09-26T03:25:29.294Z,73.28
2022-09-26T03:27:56.125Z,73.31
2022-09-26T03:30:23.883Z,73.50
2022-09-26T03:32:50.509Z,73.46
2022-09-26T03:35:17.307Z,73.23
2022-09-26T03:37:43.914Z,72.90
2022-09-26T03:40:12.682Z,73.15
2022-09-26T03:42:39.351Z,73.04
2022-09-26T03:45:10.432Z,73.23
2022-09-26T03:47:38.547Z,73.68
2022-09-26T03:50:09.119Z,73.43
2022-09-26T03:52:36.486Z,73.58
2022-09-26T03:55:03.869Z,73.63
2022-09-26T03:57:30.437Z,73.80
2022-09-26T03:59:57.241Z,73.53
2022-09-26T04:02:23.910Z,73.97
2022-09-26T04:04:50.609Z,73.07
2022-09-26T04:07:17.170Z,73.48
2022-09-26T04:09:43.754Z,73.54
2022-09-26T04:12:10.341Z,73.24
2022-09-26T04:14:36.947Z,73.48
2022-09-26T04:17:03.513Z,73.50
2022-09-26T04:19:30.179Z,73.80
2022-09-26T04:21:57.013Z,73.82
2022-09-26T04:24:23.624Z,73.74
2022-09-26T04:26:50.273Z,72.93
2022-09-26T04:29:17.127Z,73.17
2022-09-26T04:31:43.996Z,73.56
2022-09-26T04:34:11.587Z,73.64
2022-09-26T04:36:38.729Z,73.56
2022-09-26T04:39:05.664Z,73.27
2022-09-26T04:41:32.438Z,72.89
2022-09-26T04:44:00.365Z,73.12
2022-09-26T04:46:30.699Z,73.43
2022-09-26T04:49:00.262Z,73.38
2022-09-26T04:51:30.579Z,73.15
2022-09-26T04:53:57.418Z,73.04
2022-09-26T04:56:27.195Z,72.85
2022-09-26T04:58:56.595Z,73.34
2022-09-26T05:01:24.667Z,72.76
2022-09-26T05:03:51.628Z,73.50
2022-09-26T05:06:18.725Z,73.40
2022-09-26T05:08:48.558Z,72.87
2022-09-26T05:11:17.089Z,73.29
2022-09-26T05:13:44.875Z,73.30
2022-09-26T05:16:12.468Z,73.54
2022-09-26T05:18:39.528Z,72.85
2022-09-26T05:21:07.543Z,73.21
2022-09-26T05:23:53.463Z,73.12
2022-09-26T05:26:20.151Z,72.75
2022-09-26T05:28:52.504Z,72.96
2022-09-26T05:31:19.259Z,73.10
2022-09-26T05:33:46.572Z,72.51
2022-09-26T05:36:13.923Z,72.49
2022-09-26T05:38:40.762Z,72.82
2022-09-26T05:41:07.566Z,72.95
2022-09-26T05:43:35.094Z,72.74
2022-09-26T05:46:06.360Z,72.61
2022-09-26T05:48:34.220Z,72.83
2022-09-26T05:51:14.148Z,72.43
2022-09-26T05:53:42.026Z,72.73
2022-09-26T05:56:11.236Z,73.05
2022-09-26T05:58:41.305Z,73.13
2022-09-26T06:01:16.232Z,72.68
2022-09-26T06:03:44.335Z,72.73
2022-09-26T06:06:15.572Z,73.13
2022-09-26T06:08:42.581Z,73.11
2022-09-26T06:11:14.636Z,72.99
2022-09-26T06:13:45.796Z,73.20
2022-09-26T06:16:20.586Z,73.00
2022-09-26T06:18:49.167Z,73.26
2022-09-26T06:21:17.245Z,72.81
2022-09-26T06:23:44.141Z,73.26
2022-09-26T06:26:15.783Z,72.96
2022-09-26T06:28:42.377Z,72.78
2022-09-26T06:31:17.236Z,73.16
2022-09-26T06:33:44.316Z,73.59
2022-09-26T06:36:11.899Z,73.51
2022-09-26T06:38:38.918Z,73.22
2022-09-26T06:41:07.441Z,73.38
2022-09-26T06:43:34.628Z,73.57
2022-09-26T06:46:01.274Z,73.77
2022-09-26T06:48:27.954Z,72.93
2022-09-26T06:50:57.097Z,73.09
2022-09-26T06:53:23.769Z,73.73
2022-09-26T06:55:50.362Z,73.96
2022-09-26T06:58:17.162Z,73.76
2022-09-26T07:00:44.244Z,73.59
2022-09-26T07:03:12.063Z,73.78
2022-09-26T07:05:39.806Z,74.11
2022-09-26T07:08:06.755Z,74.11
2022-09-26T07:10:35.253Z,73.84
2022-09-26T07:13:04.555Z,74.00
2022-09-26T07:15:33.900Z,74.63
2022-09-26T07:18:05.029Z,74.42
2022-09-26T07:20:34.844Z,74.27
2022-09-26T07:23:10.157Z,74.06
2022-09-26T07:25:39.458Z,73.82
2022-09-26T07:28:07.323Z,73.72
2022-09-26T07:30:34.345Z,74.09
2022-09-26T07:33:05.221Z,73.66
2022-09-26T07:35:35.953Z,73.58
2022-09-26T07:38:03.519Z,73.72
2022-09-26T07:40:30.273Z,73.81
2022-09-26T07:43:18.619Z,73.32
2022-09-26T07:46:05.141Z,73.51
2022-09-26T07:48:50.150Z,73.20
2022-09-26T07:51:16.885Z,73.73
2022-09-26T07:53:43.491Z,73.23
2022-09-26T07:56:10.756Z,73.06
2022-09-26T07:58:39.776Z,72.63
2022-09-26T08:01:11.654Z,72.73
2022-09-26T08:03:39.727Z,72.69
2022-09-26T08:06:07.156Z,73.02
2022-09-26T08:08:33.847Z,72.62
2022-09-26T08:11:04.044Z,73.11
2022-09-26T08:13:31.975Z,72.88
2022-09-26T08:16:06.020Z,72.34
2022-09-26T08:18:33.517Z,72.36
2022-09-26T08:21:03.014Z,72.65
2022-09-26T08:23:29.611Z,72.13
2022-09-26T08:25:56.254Z,72.16
2022-09-26T08:28:24.095Z,72.10
2022-09-26T08:30:50.815Z,72.06
2022-09-26T08:33:19.090Z,72.05
2022-09-26T08:35:45.719Z,71.65
2022-09-26T08:38:12.598Z,71.27
2022-09-26T08:41:03.532Z,71.87
2022-09-26T08:43:39.946Z,70.15
2022-09-26T08:46:37.545Z,70.23
2022-09-26T08:49:26.121Z,69.61
2022-09-26T08:51:54.852Z,69.75
2022-09-26T08:54:27.805Z,69.85
2022-09-26T08:56:57.701Z,69.26
2022-09-26T08:59:46.101Z,69.60
2022-09-26T09:02:27.892Z,69.83
2022-09-26T09:05:27.320Z,69.84
2022-09-26T09:07:55.741Z,69.59
2022-09-26T09:10:36.494Z,69.18
2022-09-26T09:13:09.222Z,68.31
2022-09-26T09:15:54.649Z,68.85
2022-09-26T09:18:26.711Z,68.04
2022-09-26T09:21:17.742Z,67.58
2022-09-26T09:23:50.262Z,67.58
2022-09-26T09:29:11.328Z,67.48
2022-09-26T09:31:41.118Z,67.14
2022-09-26T09:34:16.127Z,66.60
2022-09-26T09:36:49.698Z,66.62
2022-09-26T09:39:33.358Z,66.26
2022-09-26T09:42:23.185Z,66.23
2022-09-26T09:44:58.223Z,65.74
2022-09-26T09:47:27.377Z,65.40
2022-09-26T09:49:54.410Z,65.39
2022-09-26T09:52:39.782Z,65.52
2022-09-26T09:55:31.069Z,65.02
2022-09-26T09:58:02.862Z,65.72
2022-09-26T10:00:29.805Z,65.27
2022-09-26T10:03:02.514Z,65.92
2022-09-26T10:05:36.815Z,65.19
2022-09-26T10:08:04.861Z,64.34
2022-09-26T10:10:59.970Z,64.59
2022-09-26T10:13:27.089Z,64.95
2022-09-26T10:16:05.734Z,65.17
2022-09-26T10:18:33.719Z,64.86
2022-09-26T10:21:06.933Z,65.08
2022-09-26T10:23:37.121Z,65.32
2022-09-26T10:26:06.347Z,65.69
2022-09-26T10:28:37.656Z,64.64
2022-09-26T10:31:08.458Z,65.55
2022-09-26T10:33:37.338Z,64.86
2022-09-26T10:36:32.631Z,65.59
2022-09-26T10:39:22.704Z,65.35
2022-09-26T10:41:49.599Z,64.29
2022-09-26T10:44:27.865Z,63.81
2022-09-26T10:46:58.181Z,64.13
2022-09-26T10:49:31.041Z,63.96
2022-09-26T10:52:05.448Z,64.61
2022-09-26T10:54:42.488Z,62.76
2022-09-26T10:57:18.684Z,62.46
2022-09-26T10:59:47.154Z,61.48
2022-09-26T11:02:20.135Z,62.53
2022-09-26T11:05:05.671Z,61.92
2022-09-26T11:07:36.054Z,60.72
2022-09-26T11:10:07.051Z,60.94
2022-09-26T11:12:39.757Z,60.72
2022-09-26T11:15:13.894Z,58.88
2022-09-26T11:17:48.585Z,58.94
2022-09-26T11:20:30.243Z,60.05
2022-09-26T11:23:16.860Z,59.26
2022-09-26T11:25:58.085Z,59.95
2022-09-26T11:28:32.636Z,59.96
2022-09-26T11:31:03.100Z,58.56
2022-09-26T11:33:30.298Z,58.81
2022-09-26T11:36:09.067Z,58.89
2022-09-26T11:38:41.429Z,58.88
2022-09-26T11:41:36.677Z,58.32
2022-09-26T11:44:20.612Z,59.48
2022-09-26T11:47:01.424Z,60.78
2022-09-26T11:49:50.063Z,59.29
2022-09-26T11:52:31.921Z,61.66
2022-09-26T11:55:21.150Z,61.42
2022-09-26T11:57:54.189Z,60.85
2022-09-26T12:00:29.237Z,61.25
2022-09-26T12:03:17.209Z,60.32
2022-09-26T12:05:54.544Z,60.36
2022-09-26T12:08:48.806Z,60.58
2022-09-26T12:11:34.255Z,59.90
2022-09-26T12:14:22.713Z,60.61
2022-09-26T12:17:07.121Z,60.13
2022-09-26T12:20:01.464Z,60.38
2022-09-26T12:22:36.455Z,60.58
2022-09-26T12:25:07.368Z,58.79
2022-09-26T12:27:51.407Z,59.66
2022-09-26T12:30:21.994Z,60.10
2022-09-26T12:33:08.602Z,60.57
2022-09-26T12:35:56.801Z,60.72
2022-09-26T12:38:34.880Z,59.75
2022-09-26T12:41:06.959Z,58.60
2022-09-26T12:44:01.381Z,59.45
2022-09-26T12:46:31.133Z,58.66
2022-09-26T12:49:22.225Z,58.42
2022-09-26T12:51:52.534Z,59.61
2022-09-26T12:54:51.379Z,59.21
2022-09-26T12:57:52.315Z,59.25
2022-09-26T13:00:22.167Z,59.59
2022-09-26T13:02:58.085Z,57.51
2022-09-26T13:06:13.502Z,59.14
2022-09-26T13:08:53.388Z,58.45
2022-09-26T13:11:30.297Z,59.07
2022-09-26T13:14:27.346Z,59.41
2022-09-26T13:17:13.833Z,59.11
2022-09-26T13:19:51.554Z,59.53
2022-09-26T13:22:27.792Z,59.53
2022-09-26T13:25:08.091Z,59.27
2022-09-26T13:27:39.398Z,59.59
2022-09-26T13:30:17.140Z,59.25
2022-09-26T13:32:57.301Z,59.01
2022-09-26T13:35:26.151Z,59.67
2022-09-26T13:38:06.183Z,59.13
2022-09-26T13:40:52.820Z,59.46
2022-09-26T13:43:29.148Z,59.26
2022-09-26T13:46:16.226Z,59.49
2022-09-26T13:49:27.429Z,59.70
2022-09-26T13:52:15.861Z,59.01
2022-09-26T13:54:45.418Z,58.88
2022-09-26T13:57:35.724Z,59.87
2022-09-26T14:00:31.221Z,59.28
2022-09-26T14:03:16.705Z,60.27
2022-09-26T14:05:52.447Z,59.50
2022-09-26T14:08:43.750Z,58.64
2022-09-26T14:11:19.516Z,58.35
2022-09-26T14:13:47.428Z,58.25
2022-09-26T14:16:29.366Z,59.35
2022-09-26T14:19:14.321Z,58.91
2022-09-26T14:22:01.975Z,59.45
2022-09-26T14:24:28.669Z,59.16
2022-09-26T14:27:04.233Z,59.37
2022-09-26T14:29:35.019Z,59.67
2022-09-26T14:32:04.523Z,59.20
2022-09-26T14:35:03.044Z,59.10
2022-09-26T14:37:39.295Z,58.63
2022-09-26T14:40:35.427Z,58.80
2022-09-26T14:43:16.734Z,59.40
2022-09-26T14:45:49.623Z,59.54
2022-09-26T14:48:34.089Z,57.92
2022-09-26T14:51:02.010Z,58.09
2022-09-26T14:53:41.488Z,57.43
2022-09-26T14:56:27.333Z,56.48
2022-09-26T14:58:55.213Z,57.27
2022-09-26T15:01:29.558Z,57.84
2022-09-26T15:04:08.591Z,58.44
2022-09-26T15:06:39.540Z,59.01
2022-09-26T15:09:25.096Z,59.23
2022-09-26T15:12:04.925Z,58.85
2022-09-26T15:14:41.482Z,59.12
2022-09-26T15:17:17.449Z,59.56
2022-09-26T15:19:53.080Z,59.30
2022-09-26T15:22:23.725Z,59.14
2022-09-26T15:24:54.722Z,59.46
2022-09-26T15:27:27.314Z,59.23
2022-09-26T15:29:55.933Z,59.74
2022-09-26T15:32:28.602Z,59.29
2022-09-26T15:34:56.290Z,59.56
2022-09-26T15:37:25.300Z,59.82
2022-09-26T15:39:52.091Z,59.80
2022-09-26T15:42:43.222Z,60.06
2022-09-26T15:45:37.927Z,59.06
2022-09-26T15:48:06.647Z,60.26
2022-09-26T15:50:42.978Z,60.23
2022-09-26T15:53:20.224Z,60.45
2022-09-26T15:55:49.571Z,60.26
2022-09-26T15:58:22.831Z,60.35
2022-09-26T16:00:51.759Z,60.54
2022-09-26T16:03:27.211Z,60.71
2022-09-26T16:05:55.002Z,60.66
2022-09-26T16:08:25.495Z,59.99
2022-09-26T16:10:57.422Z,60.47
2022-09-26T16:13:33.235Z,60.02
2022-09-26T16:16:08.420Z,59.80
2022-09-26T16:18:47.185Z,60.06
2022-09-26T16:21:27.795Z,59.46
2022-09-26T16:23:59.165Z,60.06
2022-09-26T16:26:31.625Z,59.51
2022-09-26T16:29:00.332Z,59.93
2022-09-26T16:31:34.506Z,59.41
2022-09-26T16:34:02.166Z,60.24
2022-09-26T16:36:31.775Z,60.46
2022-09-26T16:39:00.559Z,60.43
2022-09-26T16:44:36.323Z,59.87
2022-09-26T16:47:23.138Z,59.92
2022-09-26T16:49:49.794Z,60.46
2022-09-26T16:52:27.056Z,59.41
2022-09-26T16:54:55.350Z,59.53
2022-09-26T16:57:28.209Z,59.46
2022-09-26T17:00:18.897Z,58.71
2022-09-26T17:02:46.015Z,59.22
2022-09-26T17:05:21.984Z,58.76
2022-09-26T17:07:51.611Z,59.12
2022-09-26T17:10:20.175Z,58.96
2022-09-26T17:12:53.672Z,59.59
2022-09-26T17:15:26.706Z,59.32
2022-09-26T17:17:54.189Z,59.45
2022-09-26T17:20:22.169Z,59.77
2022-09-26T17:22:49.034Z,59.21
2022-09-26T17:25:15.762Z,59.04
2022-09-26T17:27:42.772Z,59.18
2022-09-26T17:30:18.245Z,59.55
2022-09-26T17:32:51.032Z,59.50
2022-09-26T17:35:28.003Z,59.03
2022-09-26T17:37:55.391Z,59.09
2022-09-26T17:40:24.690Z,58.84
2022-09-26T17:42:59.516Z,59.08
2022-09-26T17:45:31.596Z,59.08
2022-09-26T17:48:00.693Z,59.21
2022-09-26T17:50:31.631Z,59.31
2022-09-26T17:53:00.638Z,59.44
2022-09-26T17:55:28.826Z,59.09
2022-09-26T17:57:56.302Z,59.22
2022-09-26T18:00:23.178Z,59.05
2022-09-26T18:03:01.612Z,58.98
2022-09-26T18:05:34.717Z,59.45
2022-09-26T18:08:06.704Z,59.21
2022-09-26T18:10:34.597Z,59.17
2022-09-26T18:13:03.745Z,58.72
2022-09-26T18:15:30.787Z,58.87
2022-09-26T18:17:57.919Z,59.13
2022-09-26T18:20:34.435Z,58.76
2022-09-26T18:23:01.220Z,59.01
2022-09-26T18:25:27.977Z,58.64
2022-09-26T18:27:55.755Z,59.03
2022-09-26T18:30:23.731Z,59.05
2022-09-26T18:32:54.065Z,58.94
2022-09-26T18:35:24.244Z,58.57
2022-09-26T18:37:55.828Z,59.03
2022-09-26T18:40:27.957Z,58.70
2022-09-26T18:42:55.221Z,58.39
2022-09-26T18:45:29.841Z,58.54
2022-09-26T18:47:57.221Z,58.54
2022-09-26T18:50:36.595Z,58.54
2022-09-26T18:53:04.715Z,58.86
2022-09-26T18:55:50.335Z,58.75
2022-09-26T18:58:24.427Z,58.31
2022-09-26T19:00:57.237Z,58.72
2022-09-26T19:03:25.260Z,58.44
2022-09-26T19:05:53.390Z,58.95
2022-09-26T19:08:28.364Z,58.38
2022-09-26T19:10:55.713Z,59.09
2022-09-26T19:13:27.347Z,58.45
2022-09-26T19:15:54.303Z,58.71
2022-09-26T19:18:21.235Z,58.48
2022-09-26T19:20:47.914Z,58.35
2022-09-26T19:23:14.707Z,58.82
2022-09-26T19:25:41.463Z,58.59
2022-09-26T19:28:13.944Z,58.86
2022-09-26T19:30:40.770Z,58.43
2022-09-26T19:33:10.435Z,58.61
2022-09-26T19:35:41.669Z,58.43
2022-09-26T19:38:19.363Z,58.58
2022-09-26T19:40:49.057Z,58.23
2022-09-26T19:43:16.861Z,58.21
2022-09-26T19:45:44.450Z,58.76
2022-09-26T19:48:16.401Z,58.63
2022-09-26T19:50:44.931Z,58.51
2022-09-26T19:53:16.765Z,58.43
2022-09-26T19:55:44.068Z,57.86
2022-09-26T19:58:16.751Z,58.49
2022-09-26T20:00:44.781Z,58.45
2022-09-26T20:03:22.885Z,58.48
2022-09-26T20:05:50.214Z,58.15
2022-09-26T20:08:27.826Z,58.02
2022-09-26T20:10:59.258Z,58.47
2022-09-26T20:13:25.962Z,58.65
2022-09-26T20:15:52.674Z,58.33
2022-09-26T20:18:21.958Z,58.84
2022-09-26T20:20:52.766Z,58.79
2022-09-26T20:23:22.003Z,58.35
2022-09-26T20:25:49.193Z,58.42
2022-09-26T20:28:16.411Z,58.30
2022-09-26T20:30:52.144Z,58.42
2022-09-26T20:33:22.077Z,59.02
2022-09-26T20:36:00.173Z,58.45
2022-09-26T20:38:33.208Z,58.46
2022-09-26T20:41:12.098Z,58.34
2022-09-26T20:43:39.746Z,58.69
2022-09-26T20:46:09.313Z,58.64
2022-09-26T20:48:36.651Z,58.42
2022-09-26T20:51:05.181Z,58.58
2022-09-26T20:53:32.062Z,58.85
2022-09-26T20:55:58.812Z,58.47
2022-09-26T20:58:25.433Z,58.82
2022-09-26T21:00:53.291Z,58.57
2022-09-26T21:03:21.958Z,59.06
2022-09-26T21:05:48.627Z,58.71
2022-09-26T21:08:31.367Z,58.92
2022-09-26T21:10:59.302Z,58.67
2022-09-26T21:13:25.886Z,58.71
2022-09-26T21:15:53.041Z,58.95
2022-09-26T21:18:25.111Z,59.05
2022-09-26T21:20:52.550Z,58.91
2022-09-26T21:23:20.296Z,58.87
2022-09-26T21:25:47.437Z,58.68
2022-09-26T21:28:26.476Z,58.54
2022-09-26T21:30:58.833Z,58.83
2022-09-26T21:33:25.604Z,58.83
2022-09-26T21:35:52.829Z,59.02
2022-09-26T21:38:20.598Z,58.69
2022-09-26T21:40:51.924Z,59.07
2022-09-26T21:43:21.072Z,58.76
2022-09-26T21:45:47.791Z,59.24
2022-09-26T21:48:15.412Z,59.16
2022-09-26T21:50:44.705Z,59.28
2022-09-26T21:53:20.022Z,59.06
2022-09-26T21:55:51.173Z,59.16
2022-09-26T21:58:21.863Z,59.16
2022-09-26T22:00:48.742Z,59.52
2022-09-26T22:03:15.361Z,58.98
2022-09-26T22:05:42.440Z,59.10
2022-09-26T22:08:09.268Z,59.23
2022-09-26T22:10:36.878Z,59.21
2022-09-26T22:13:04.198Z,58.94
2022-09-26T22:15:30.814Z,59.38
2022-09-26T22:17:57.552Z,59.38
2022-09-26T22:20:24.403Z,59.17
2022-09-26T22:22:51.655Z,59.14
2022-09-26T22:25:18.364Z,59.09
2022-09-26T22:27:45.208Z,59.15
2022-09-26T22:30:12.904Z,59.52
2022-09-26T22:32:40.063Z,59.22
2022-09-26T22:35:07.022Z,59.52
2022-09-26T22:37:33.918Z,58.97
2022-09-26T22:40:00.641Z,59.64
2022-09-26T22:42:27.266Z,59.47
2022-09-26T22:44:53.955Z,59.63
2022-09-26T22:47:20.642Z,59.77
2022-09-26T22:49:47.256Z,59.55
2022-09-26T22:52:13.884Z,60.11
2022-09-26T22:54:40.514Z,59.42
2022-09-26T22:57:07.157Z,59.63
2022-09-26T22:59:33.888Z,59.75
2022-09-26T23:02:00.602Z,59.57
2022-09-26T23:04:46.956Z,59.66
2022-09-26T23:07:15.490Z,60.28
2022-09-26T23:09:42.206Z,59.91
2022-09-26T23:12:09.097Z,60.28
2022-09-26T23:14:35.898Z,59.88
2022-09-26T23:17:03.110Z,59.81
2022-09-26T23:19:30.213Z,59.51
2022-09-26T23:21:58.142Z,60.24
2022-09-26T23:24:24.955Z,60.43
2022-09-26T23:26:51.634Z,60.11
2022-09-26T23:29:18.226Z,60.39
2022-09-26T23:31:45.065Z,59.88
2022-09-26T23:34:12.218Z,60.15
2022-09-26T23:36:38.869Z,60.07
2022-09-26T23:39:05.794Z,60.06
2022-09-26T23:41:32.465Z,60.28
2022-09-26T23:43:59.327Z,60.17
2022-09-26T23:46:26.069Z,60.38
2022-09-26T23:48:52.844Z,60.26
2022-09-26T23:51:19.580Z,60.62
2022-09-26T23:53:47.838Z,59.95
2022-09-26T23:56:14.793Z,60.11
2022-09-26T23:58:41.763Z,60.63
